Time;durP1;ratioP1;P1;durP2;ratioP2;P2;SDS_P1;SDS_P2;PMS_P1;PMS_P2;Temp;Humidity;BMP_temperature;BMP_pressure;BME280_temperature;BME280_humidity;BME280_pressure;Samples;Min_cycle;Max_cycle;Signal;HPM_P1;HPM_P2
2021/06/13 00:01:26;;;;;;;13.55;9.35;;;;;;;16.84;71.89;99559.11;1764423;79;21649;-72
2021/06/13 00:03:52;;;;;;;13.65;9.45;;;;;;;16.84;72.11;99556.44;1769621;80;21378;-71
2021/06/13 00:06:19;;;;;;;14.33;9.85;;;;;;;16.83;72.32;99552.13;1736726;80;20997;-72
2021/06/13 00:08:46;;;;;;;12.05;9.58;;;;;;;16.82;72.51;99543.80;1701253;81;21782;-75
2021/06/13 00:11:13;;;;;;;12.75;9.28;;;;;;;16.80;72.73;99537.83;1714575;81;21087;-72
2021/06/13 00:13:40;;;;;;;13.58;9.10;;;;;;;16.79;72.95;99536.14;1718393;81;21701;-72
2021/06/13 00:16:06;;;;;;;12.93;8.80;;;;;;;16.76;73.00;99530.67;1724094;81;21072;-72
2021/06/13 00:18:33;;;;;;;16.12;8.90;;;;;;;16.77;73.10;99530.17;1722614;82;21225;-72
2021/06/13 00:20:59;;;;;;;12.65;8.95;;;;;;;16.78;72.97;99531.83;1729719;82;21807;-72
2021/06/13 00:23:26;;;;;;;16.35;8.85;;;;;;;16.73;72.81;99528.89;1723158;81;21143;-72
2021/06/13 00:25:52;;;;;;;14.15;9.00;;;;;;;16.68;72.78;99520.56;1704654;83;21016;-72
2021/06/13 00:28:19;;;;;;;11.03;9.18;;;;;;;16.65;72.82;99515.09;1677422;83;21107;-72
2021/06/13 00:30:46;;;;;;;11.85;9.35;;;;;;;16.64;72.83;99520.11;1682610;84;20928;-72
2021/06/13 00:33:12;;;;;;;11.65;8.93;;;;;;;16.63;72.78;99521.13;1735880;80;21771;-72
2021/06/13 00:35:39;;;;;;;13.95;9.25;;;;;;;16.64;72.97;99520.62;1760841;79;21027;-72
2021/06/13 00:38:06;;;;;;;14.30;9.45;;;;;;;16.64;73.23;99519.28;1757060;80;21063;-72
2021/06/13 00:40:33;;;;;;;14.35;10.08;;;;;;;16.60;73.29;99519.66;1766323;79;20952;-72
2021/06/13 00:42:59;;;;;;;15.63;10.50;;;;;;;16.59;73.40;99514.48;1763239;79;21023;-73
2021/06/13 00:45:27;;;;;;;13.32;9.80;;;;;;;16.58;73.61;99520.83;1739866;82;21824;-72
2021/06/13 00:47:54;;;;;;;12.23;9.68;;;;;;;16.55;73.78;99519.86;1738838;82;20996;-72
2021/06/13 00:50:48;;;;;;;17.10;9.78;;;;;;;16.52;74.05;99516.23;1721441;81;21051;-72
2021/06/13 00:53:15;;;;;;;13.53;9.55;;;;;;;16.47;74.33;99513.27;1758751;79;20936;-71
2021/06/13 00:55:44;;;;;;;14.38;9.05;;;;;;;16.41;74.56;99513.50;1741868;82;20952;-72
2021/06/13 00:58:10;;;;;;;13.75;9.10;;;;;;;16.39;74.70;99503.50;1735239;82;21739;-72
2021/06/13 01:00:38;;;;;;;12.40;8.45;;;;;;;16.36;74.86;99505.71;1717209;81;21400;-72
2021/06/13 01:03:07;;;;;;;14.80;8.53;;;;;;;16.34;75.04;99501.08;1743352;80;21158;-71
2021/06/13 01:05:34;;;;;;;13.32;8.68;;;;;;;16.31;75.23;99507.59;1762781;80;21474;-71
2021/06/13 01:08:45;;;;;;;11.55;7.95;;;;;;;16.27;75.43;99502.28;1772618;79;21591;-71
2021/06/13 01:11:35;;;;;;;12.25;8.35;;;;;;;16.26;75.59;99504.13;1771311;80;21820;-71
2021/06/13 01:14:16;;;;;;;12.60;8.45;;;;;;;16.23;75.71;99498.34;1746959;79;21063;-71
2021/06/13 01:17:07;;;;;;;15.10;8.85;;;;;;;16.21;75.75;99497.66;1722696;81;21000;-72
2021/06/13 01:19:45;;;;;;;14.93;8.13;;;;;;;16.21;75.75;99491.00;1723959;81;21041;-71
2021/06/13 01:22:37;;;;;;;11.20;7.65;;;;;;;16.19;75.83;99490.36;1715539;80;21012;-71
2021/06/13 01:25:55;;;;;;;11.80;8.00;;;;;;;16.15;75.92;99488.56;1771992;79;21829;-71
2021/06/13 01:29:10;;;;;;;16.48;8.25;;;;;;;16.13;76.03;99487.10;1757342;79;21016;-72
2021/06/13 01:31:57;;;;;;;12.30;8.28;;;;;;;16.07;76.08;99486.47;1754218;80;21484;-76
2021/06/13 01:34:40;;;;;;;11.45;7.30;;;;;;;16.06;76.09;99485.64;1736565;81;21091;-72
2021/06/13 01:37:09;;;;;;;11.65;7.90;;;;;;;16.05;76.10;99483.16;1737514;80;20960;-71
2021/06/13 01:39:38;;;;;;;10.20;7.05;;;;;;;16.05;76.15;99476.50;1757367;80;21779;-72
2021/06/13 01:42:08;;;;;;;13.10;7.60;;;;;;;16.06;76.05;99475.49;1772659;79;21444;-72
2021/06/13 01:44:39;;;;;;;10.80;7.25;;;;;;;16.05;75.89;99473.34;1730941;80;21024;-72
2021/06/13 01:47:05;;;;;;;11.00;7.28;;;;;;;16.05;75.92;99473.84;1718193;82;21483;-72
2021/06/13 01:49:34;;;;;;;10.15;7.10;;;;;;;16.01;75.96;99474.17;1709055;82;21001;-72
2021/06/13 01:52:03;;;;;;;12.98;7.20;;;;;;;16.00;76.03;99469.03;1727662;81;21840;-72
2021/06/13 01:54:31;;;;;;;9.33;6.85;;;;;;;15.95;76.15;99467.42;1778641;80;21498;-72
2021/06/13 01:56:58;;;;;;;11.70;6.97;;;;;;;15.90;76.22;99463.95;1774707;80;21079;-72
2021/06/13 01:59:27;;;;;;;9.28;7.05;;;;;;;15.89;76.26;99467.63;1739655;82;21439;-72
2021/06/13 02:01:57;;;;;;;12.93;7.30;;;;;;;15.90;76.20;99466.61;1736164;81;21056;-72
2021/06/13 02:04:26;;;;;;;13.05;7.22;;;;;;;15.90;76.10;99467.94;1728157;78;21806;-73
2021/06/13 02:07:01;;;;;;;10.58;7.03;;;;;;;15.90;75.99;99463.95;1727176;82;20972;-72
2021/06/13 02:09:28;;;;;;;12.18;7.03;;;;;;;15.90;75.85;99463.95;1726645;81;21014;-72
2021/06/13 02:11:56;;;;;;;12.45;7.20;;;;;;;15.91;75.78;99458.12;1734944;80;21365;-72
2021/06/13 02:14:24;;;;;;;9.80;6.58;;;;;;;15.89;75.85;99452.97;1736364;80;20960;-72
2021/06/13 02:16:53;;;;;;;8.43;6.85;;;;;;;15.89;75.70;99453.48;1756656;80;21843;-72
2021/06/13 02:19:23;;;;;;;10.88;6.75;;;;;;;15.88;75.67;99450.49;1760959;80;21007;-72
2021/06/13 02:21:58;;;;;;;13.98;7.17;;;;;;;15.87;75.68;99445.67;1751713;80;21057;-71
2021/06/13 02:24:26;;;;;;;8.90;6.92;;;;;;;15.86;75.71;99443.20;1729903;80;21051;-71
2021/06/13 02:26:54;;;;;;;10.55;6.85;;;;;;;15.87;75.65;99440.86;1768620;78;21013;-72
2021/06/13 02:29:20;;;;;;;9.10;6.42;;;;;;;15.87;75.63;99435.53;1733959;80;21850;-73
2021/06/13 02:31:48;;;;;;;10.60;6.65;;;;;;;15.88;75.73;99439.34;1708005;83;20993;-72
2021/06/13 02:34:24;;;;;;;10.35;6.62;;;;;;;15.86;75.86;99436.03;1735881;80;20881;-72
2021/06/13 02:36:54;;;;;;;7.10;5.78;;;;;;;15.85;76.01;99438.38;1710300;82;21060;-72
2021/06/13 02:39:21;;;;;;;12.90;6.28;;;;;;;15.83;76.22;99436.40;1733420;81;20952;-73
2021/06/13 02:41:48;;;;;;;8.28;6.03;;;;;;;15.83;76.32;99435.07;1746612;79;21804;-72
2021/06/13 02:44:16;;;;;;;8.40;6.40;;;;;;;15.84;76.37;99431.90;1764690;80;20928;-72
2021/06/13 02:46:42;;;;;;;9.35;6.55;;;;;;;15.87;76.49;99435.53;1767023;79;20992;-72
2021/06/13 02:49:10;;;;;;;7.67;5.90;;;;;;;15.86;76.57;99428.05;1759512;80;21053;-72
2021/06/13 02:52:04;;;;;;;7.85;5.90;;;;;;;15.86;76.71;99433.38;1745848;79;21011;-72
2021/06/13 02:54:32;;;;;;;;;;;;;;;15.87;76.83;99430.20;1737844;80;22457;-72
2021/06/13 02:56:59;;;;;;;9.68;6.17;;;;;;;15.88;76.94;99416.70;1740143;79;20701;-72
2021/06/13 02:59:41;;;;;;;6.47;5.42;;;;;;;15.88;77.00;99418.03;1738888;81;21056;-72
2021/06/13 03:02:12;;;;;;;6.67;5.75;;;;;;;15.93;77.03;99415.67;1702328;81;21256;-72
2021/06/13 03:04:40;;;;;;;7.60;5.87;;;;;;;15.96;77.06;99413.98;1766655;80;20932;-72
2021/06/13 03:07:06;;;;;;;6.67;5.25;;;;;;;16.00;77.07;99412.59;1759130;80;21490;-72
2021/06/13 03:09:35;;;;;;;6.85;5.72;;;;;;;16.06;77.00;99411.56;1755346;80;21029;-72
2021/06/13 03:12:05;;;;;;;7.30;5.42;;;;;;;16.09;76.90;99416.52;1770418;80;21047;-72
2021/06/13 03:14:33;;;;;;;10.65;5.85;;;;;;;16.12;76.79;99417.52;1768064;79;21165;-72
2021/06/13 03:17:00;;;;;;;7.37;5.37;;;;;;;16.14;76.60;99411.50;1729801;81;20949;-73
2021/06/13 03:19:27;;;;;;;7.37;5.53;;;;;;;16.18;76.53;99408.78;1758728;80;21818;-73
2021/06/13 03:21:56;;;;;;;8.55;5.78;;;;;;;16.20;76.42;99408.91;1737177;80;21023;-72
2021/06/13 03:24:23;;;;;;;8.53;5.40;;;;;;;16.25;76.39;99407.05;1769376;80;20929;-76
2021/06/13 03:26:52;;;;;;;8.65;5.70;;;;;;;16.28;76.33;99405.34;1737506;80;20987;-77
2021/06/13 03:29:19;;;;;;;8.43;5.47;;;;;;;16.31;76.18;99403.67;1730349;80;21009;-74
2021/06/13 03:31:48;;;;;;;10.95;5.78;;;;;;;16.35;76.10;99406.28;1758987;80;22378;-72
2021/06/13 03:34:15;;;;;;;9.63;5.50;;;;;;;16.39;75.97;99399.56;1753989;79;20991;-72
2021/06/13 03:36:42;;;;;;;8.08;5.20;;;;;;;16.40;75.78;99395.06;1756219;80;21023;-71
2021/06/13 03:39:10;;;;;;;7.20;5.53;;;;;;;16.41;75.77;99394.08;1766240;79;20956;-72
2021/06/13 03:41:36;;;;;;;7.45;5.40;;;;;;;16.41;75.75;99389.57;1718346;80;21070;-71
2021/06/13 03:44:03;;;;;;;10.63;5.50;;;;;;;16.43;75.81;99391.55;1763226;80;21593;-73
2021/06/13 03:46:30;;;;;;;8.10;5.33;;;;;;;16.44;75.87;99391.86;1727152;80;21586;-73
2021/06/13 03:48:58;;;;;;;8.45;4.90;;;;;;;16.46;75.89;99392.50;1668269;84;21391;-73
2021/06/13 03:51:25;;;;;;;8.43;5.37;;;;;;;16.51;75.90;99389.30;1689507;82;20999;-73
2021/06/13 03:53:54;;;;;;;7.90;4.87;;;;;;;16.54;75.86;99386.25;1689774;82;21466;-73
2021/06/13 03:56:28;;;;;;;7.78;5.40;;;;;;;16.62;75.88;99398.67;1700140;83;21840;-73
2021/06/13 03:58:54;;;;;;;;;;;;;;;16.70;75.66;99398.61;1703246;83;20984;-73
2021/06/13 04:01:22;;;;;;;5.83;4.78;;;;;;;16.77;75.37;99391.00;1713958;82;20221;-73
2021/06/13 04:03:50;;;;;;;7.55;4.45;;;;;;;16.86;75.15;99393.05;1692184;82;21069;-73
2021/06/13 04:06:21;;;;;;;6.95;4.70;;;;;;;16.95;75.04;99391.12;1716305;81;20997;-76
2021/06/13 04:08:47;;;;;;;10.10;5.00;;;;;;;17.03;74.63;99389.17;1740511;82;21861;-73
2021/06/13 04:11:14;;;;;;;8.95;4.40;;;;;;;17.12;74.41;99384.05;1752064;79;21000;-78
2021/06/13 04:13:41;;;;;;;7.50;4.47;;;;;;;17.19;73.99;99385.47;1751740;79;21043;-73
2021/06/13 04:16:09;;;;;;;6.78;4.45;;;;;;;17.26;73.75;99381.51;1771535;80;21055;-73
2021/06/13 04:18:36;;;;;;;6.67;4.40;;;;;;;17.31;73.37;99389.28;1770040;80;21008;-73
2021/06/13 04:21:04;;;;;;;6.00;5.40;;;;;;;17.39;73.17;99387.01;1728290;82;21814;-73
2021/06/13 04:23:32;;;;;;;7.45;5.10;;;;;;;17.46;72.86;99382.03;1767696;79;21039;-73
2021/06/13 04:25:58;;;;;;;7.72;6.92;;;;;;;17.53;72.74;99381.28;1746830;80;21418;-73
2021/06/13 04:28:25;;;;;;;7.03;4.80;;;;;;;17.62;72.51;99378.29;1729595;80;21048;-73
2021/06/13 04:31:12;;;;;;;5.80;4.53;;;;;;;17.70;72.29;99374.19;1755992;80;20973;-73
2021/06/13 04:33:41;;;;;;;5.37;4.03;;;;;;;17.79;71.82;99374.89;1761633;80;21448;-74
2021/06/13 04:36:09;;;;;;;6.58;4.28;;;;;;;17.91;71.29;99376.52;1718189;81;21463;-73
2021/06/13 04:38:35;;;;;;;4.58;3.70;;;;;;;17.99;70.81;99375.05;1757109;79;20896;-74
2021/06/13 04:41:02;;;;;;;7.15;3.62;;;;;;;18.08;70.68;99373.05;1755672;79;21004;-73
2021/06/13 04:43:29;;;;;;;6.25;4.20;;;;;;;18.19;70.21;99373.34;1767565;79;21323;-74
2021/06/13 04:45:56;;;;;;;5.83;3.95;;;;;;;18.28;69.73;99370.83;1742646;79;22223;-74
2021/06/13 04:48:23;;;;;;;4.85;3.70;;;;;;;18.37;69.34;99372.84;1736478;81;21043;-73
2021/06/13 04:50:49;;;;;;;4.90;3.80;;;;;;;18.47;69.27;99375.16;1739587;81;21197;-74
2021/06/13 04:53:51;;;;;;;5.87;3.60;;;;;;;18.57;68.88;99379.12;1740727;82;21071;-74
2021/06/13 04:56:38;;;;;;;4.65;3.75;;;;;;;18.65;68.37;99374.16;1667141;82;21021;-75
2021/06/13 04:59:04;;;;;;;4.95;3.47;;;;;;;18.77;67.86;99373.91;1751759;80;22108;-74
2021/06/13 05:01:31;;;;;;;6.83;3.75;;;;;;;18.84;67.53;99368.08;1767661;80;20960;-74
2021/06/13 05:03:57;;;;;;;4.90;2.77;;;;;;;18.92;67.20;99369.77;1763686;80;20920;-73
2021/06/13 05:06:24;;;;;;;5.40;3.30;;;;;;;19.00;66.88;99376.25;1769744;80;20921;-74
2021/06/13 05:08:50;;;;;;;6.65;3.90;;;;;;;19.07;66.47;99379.78;1753487;80;21111;-75
2021/06/13 05:11:17;;;;;;;5.65;3.70;;;;;;;19.11;66.35;99379.71;1733919;80;22623;-74
2021/06/13 05:13:44;;;;;;;6.83;3.58;;;;;;;19.16;66.60;99380.43;1755031;80;21008;-73
2021/06/13 05:16:11;;;;;;;4.72;3.45;;;;;;;19.25;66.66;99375.20;1751259;79;21150;-76
2021/06/13 05:18:38;;;;;;;5.72;3.85;;;;;;;19.33;66.64;99376.36;1749540;79;21004;-73
2021/06/13 05:21:04;;;;;;;7.83;3.72;;;;;;;19.42;66.32;99377.00;1749315;80;21083;-74
2021/06/13 05:23:31;;;;;;;4.50;3.77;;;;;;;19.50;66.09;99367.95;1746977;79;21813;-75
2021/06/13 05:25:58;;;;;;;4.12;3.50;;;;;;;19.56;66.02;99367.98;1709690;83;21707;-74
2021/06/13 05:28:25;;;;;;;5.03;3.70;;;;;;;19.65;66.06;99376.13;1691273;81;21491;-74
2021/06/13 05:30:52;;;;;;;6.10;3.60;;;;;;;19.73;66.14;99372.43;1745004;80;21178;-74
2021/06/13 05:33:19;;;;;;;5.85;3.60;;;;;;;19.83;66.02;99370.16;1725923;80;20985;-74
2021/06/13 05:35:47;;;;;;;7.65;3.70;;;;;;;19.92;65.94;99363.57;1751015;80;21855;-76
2021/06/13 05:38:14;;;;;;;7.00;3.52;;;;;;;20.02;65.56;99368.52;1770880;80;20888;-74
2021/06/13 05:40:41;;;;;;;4.72;3.95;;;;;;;20.10;65.37;99369.64;1768770;80;20939;-76
2021/06/13 05:43:08;;;;;;;5.85;3.40;;;;;;;20.21;65.08;99368.19;1756734;79;21293;-75
2021/06/13 05:45:35;;;;;;;5.25;3.62;;;;;;;20.29;64.80;99367.45;1719992;80;21015;-74
2021/06/13 05:48:02;;;;;;;7.92;4.15;;;;;;;20.38;64.97;99361.88;1762224;79;22896;-77
2021/06/13 05:50:30;;;;;;;9.23;3.87;;;;;;;20.49;64.61;99370.64;1748547;80;20964;-72
2021/06/13 05:52:57;;;;;;;6.62;3.75;;;;;;;20.58;64.30;99371.55;1771454;80;21470;-71
2021/06/13 05:55:25;;;;;;;4.67;3.42;;;;;;;20.67;63.87;99371.31;1755224;80;20972;-70
2021/06/13 05:57:51;;;;;;;6.20;4.00;;;;;;;20.78;64.05;99376.02;1773171;80;21084;-72
2021/06/13 06:00:21;;;;;;;7.15;3.77;;;;;;;20.88;63.49;99371.02;1764188;79;21834;-77
2021/06/13 06:02:48;;;;;;;4.97;3.75;;;;;;;20.94;63.41;99374.70;1737061;80;21122;-77
2021/06/13 06:05:17;;;;;;;5.60;3.90;;;;;;;21.00;63.63;99365.80;1733050;82;21196;-77
2021/06/13 06:07:44;;;;;;;5.10;4.00;;;;;;;21.09;63.56;99364.52;1729505;81;21006;-77
2021/06/13 06:10:11;;;;;;;5.72;3.70;;;;;;;21.20;63.40;99371.89;1753419;79;21020;-76
2021/06/13 06:12:38;;;;;;;4.95;3.77;;;;;;;21.31;62.66;99372.58;1767419;79;21806;-76
2021/06/13 06:15:07;;;;;;;7.80;3.70;;;;;;;21.41;62.27;99368.08;1763840;79;20937;-76
2021/06/13 06:17:34;;;;;;;6.75;3.52;;;;;;;21.51;61.92;99372.97;1742136;79;20988;-77
2021/06/13 06:20:01;;;;;;;6.15;3.50;;;;;;;21.58;61.32;99372.42;1749717;80;21033;-77
2021/06/13 06:22:27;;;;;;;5.37;3.25;;;;;;;21.65;61.20;99365.96;1721357;81;20892;-77
2021/06/13 06:24:54;;;;;;;4.28;3.42;;;;;;;21.75;61.13;99372.19;1770785;80;22699;-77
2021/06/13 06:27:21;;;;;;;4.08;3.40;;;;;;;21.82;60.52;99360.06;1762796;79;20920;-78
2021/06/13 06:29:47;;;;;;;6.15;3.25;;;;;;;21.90;60.65;99362.45;1701745;82;20964;-77
2021/06/13 06:32:14;;;;;;;7.12;3.80;;;;;;;21.96;60.64;99358.89;1763207;80;21028;-78
2021/06/13 06:34:41;;;;;;;4.42;3.58;;;;;;;22.08;60.25;99352.29;1758742;79;21550;-77
2021/06/13 06:37:08;;;;;;;4.28;3.42;;;;;;;22.18;59.08;99358.80;1758588;80;21780;-75
2021/06/13 06:39:34;;;;;;;7.87;3.65;;;;;;;22.30;59.48;99355.41;1728854;82;21008;-77
2021/06/13 06:42:01;;;;;;;5.30;3.25;;;;;;;22.40;58.59;99347.13;1727817;81;21056;-76
2021/06/13 06:44:28;;;;;;;6.00;3.92;;;;;;;22.50;57.90;99352.80;1752784;80;21088;-76
2021/06/13 06:46:54;;;;;;;20.68;13.72;;;;;;;22.55;58.17;99346.20;1761035;80;21040;-75
2021/06/13 06:49:21;;;;;;;7.75;5.50;;;;;;;22.63;57.68;99349.12;1747304;79;22518;-74
2021/06/13 06:51:47;;;;;;;19.55;16.45;;;;;;;22.72;57.45;99342.92;1753040;79;21351;-74
2021/06/13 06:54:14;;;;;;;13.48;9.08;;;;;;;22.84;57.60;99345.17;1742125;80;22726;-76
2021/06/13 06:56:40;;;;;;;11.57;7.95;;;;;;;22.95;56.55;99339.55;1764809;80;21056;-79
2021/06/13 06:59:07;;;;;;;9.30;7.28;;;;;;;23.04;56.88;99338.19;1763320;80;21079;-75
2021/06/13 07:01:34;;;;;;;11.97;7.33;;;;;;;23.12;57.29;99337.34;1766426;80;21812;-80
2021/06/13 07:04:00;;;;;;;9.30;5.80;;;;;;;23.22;57.17;99340.02;1759041;79;21051;-76
2021/06/13 07:06:27;;;;;;;9.53;4.33;;;;;;;23.33;56.69;99331.96;1764622;80;20974;-78
2021/06/13 07:08:53;;;;;;;6.08;3.83;;;;;;;23.44;55.82;99338.43;1741199;80;20980;-84
2021/06/13 07:11:20;;;;;;;6.05;3.17;;;;;;;23.51;54.17;99341.86;1756880;80;21079;-77
2021/06/13 07:13:46;;;;;;;3.40;2.83;;;;;;;23.55;53.35;99334.97;1764020;80;21816;-76
2021/06/13 07:16:15;;;;;;;3.77;2.83;;;;;;;23.62;52.69;99328.95;1768128;80;21035;-74
2021/06/13 07:18:41;;;;;;;3.37;2.90;;;;;;;23.70;53.04;99334.01;1754654;79;21052;-78
2021/06/13 07:21:08;;;;;;;5.08;2.90;;;;;;;23.77;52.87;99325.82;1751895;79;21067;-76
2021/06/13 07:23:35;;;;;;;4.40;3.50;;;;;;;23.82;52.15;99323.76;1755099;79;20973;-80
2021/06/13 07:26:02;;;;;;;4.03;3.52;;;;;;;23.89;51.86;99327.98;1753133;79;21791;-80
2021/06/13 07:28:31;;;;;;;4.80;3.33;;;;;;;23.99;51.20;99320.14;1753898;79;20969;-80
2021/06/13 07:30:57;;;;;;;4.17;2.90;;;;;;;24.10;51.81;99320.37;1752014;80;21612;-80
2021/06/13 07:33:25;;;;;;;6.95;2.87;;;;;;;24.25;50.50;99313.97;1751706;79;21624;-81
2021/06/13 07:35:53;;;;;;;4.35;2.30;;;;;;;24.35;48.96;99315.58;1755912;80;20973;-80
2021/06/13 07:38:19;;;;;;;4.62;2.33;;;;;;;24.46;48.24;99311.21;1760003;80;21806;-80
2021/06/13 07:40:47;;;;;;;4.10;2.30;;;;;;;24.55;46.70;99311.95;1742783;79;21000;-83
2021/06/13 07:43:14;;;;;;;4.65;2.25;;;;;;;24.61;46.98;99295.34;1728720;82;21490;-85
2021/06/13 07:45:42;;;;;;;6.03;2.27;;;;;;;24.73;47.88;99300.16;1749835;79;21434;-85
2021/06/13 07:48:09;;;;;;;5.45;2.20;;;;;;;24.93;47.63;99300.27;1729910;80;21070;-82
2021/06/13 07:50:37;;;;;;;2.55;2.20;;;;;;;25.10;47.19;99299.28;1773521;80;21900;-85
2021/06/13 07:53:05;;;;;;;4.85;1.87;;;;;;;25.28;46.37;99293.35;1726774;81;21150;-81
2021/06/13 07:55:32;;;;;;;5.37;1.98;;;;;;;25.42;45.48;99295.23;1759345;79;20970;-81
2021/06/13 07:57:58;;;;;;;2.92;2.22;;;;;;;25.51;46.33;99293.76;1750752;80;21103;-81
2021/06/13 08:00:25;;;;;;;2.80;2.10;;;;;;;25.61;44.90;99287.98;1751348;80;21092;-83
2021/06/13 08:02:54;;;;;;;2.62;2.20;;;;;;;25.60;45.03;99283.64;1755083;80;21766;-81
2021/06/13 08:05:28;;;;;;;3.85;2.42;;;;;;;25.56;43.36;99293.29;1747712;79;21071;-76
2021/06/13 08:08:00;;;;;;;5.08;2.47;;;;;;;25.50;43.83;99288.06;1770831;80;20995;-75
2021/06/13 08:10:28;;;;;;;3.55;2.67;;;;;;;25.41;43.72;99286.30;1753687;80;22128;-75
2021/06/13 08:12:55;;;;;;;5.85;2.42;;;;;;;25.23;43.84;99291.39;1765233;78;20957;-76
2021/06/13 08:15:22;;;;;;;3.95;2.27;;;;;;;25.18;44.91;99280.48;1737559;80;22451;-75
2021/06/13 08:17:50;;;;;;;4.00;2.20;;;;;;;25.21;45.12;99271.91;1742125;79;21388;-79
2021/06/13 08:20:17;;;;;;;5.37;2.08;;;;;;;25.22;44.11;99271.38;1760076;79;20945;-76
2021/06/13 08:22:44;;;;;;;7.33;3.30;;;;;;;25.17;43.84;99279.38;1745491;79;21071;-75
2021/06/13 08:25:11;;;;;;;3.45;2.37;;;;;;;25.21;44.43;99280.02;1764180;80;21559;-74
2021/06/13 08:27:38;;;;;;;3.00;2.00;;;;;;;25.33;44.01;99271.83;1771589;78;22624;-76
2021/06/13 08:30:07;;;;;;;8.05;2.08;;;;;;;25.48;43.83;99263.98;1762203;80;20916;-74
2021/06/13 08:32:34;;;;;;;4.70;2.50;;;;;;;25.63;43.03;99273.67;1740014;80;20984;-76
2021/06/13 08:35:01;;;;;;;7.47;2.95;;;;;;;25.73;42.99;99274.93;1751457;79;21028;-74
2021/06/13 08:37:27;;;;;;;4.17;2.47;;;;;;;25.81;43.52;99271.81;1765032;80;21500;-75
2021/06/13 08:39:54;;;;;;;4.50;2.62;;;;;;;25.85;42.85;99281.88;1740252;79;21825;-75
2021/06/13 08:42:20;;;;;;;4.37;2.30;;;;;;;25.76;42.33;99277.95;1765056;80;21019;-76
2021/06/13 08:44:48;;;;;;;2.45;2.20;;;;;;;25.54;42.67;99279.73;1753681;79;21550;-77
2021/06/13 08:47:17;;;;;;;13.13;4.55;;;;;;;25.30;43.88;99272.33;1753394;79;20984;-75
2021/06/13 08:49:45;;;;;;;7.10;2.90;;;;;;;25.07;44.81;99276.78;1763744;80;21089;-74
2021/06/13 08:52:11;;;;;;;4.92;2.40;;;;;;;24.84;46.65;99294.42;1746293;79;21814;-74
2021/06/13 08:54:39;;;;;;;7.37;2.50;;;;;;;24.52;47.46;99305.69;1744737;80;21516;-75
2021/06/13 08:57:07;;;;;;;8.65;1.95;;;;;;;24.22;47.88;99307.18;1743271;80;21439;-71
2021/06/13 08:59:34;;;;;;;2.95;1.57;;;;;;;23.92;47.38;99308.63;1739476;80;21006;-75
2021/06/13 09:02:00;;;;;;;4.30;1.75;;;;;;;23.60;47.16;99322.98;1731409;80;20946;-73
2021/06/13 09:04:27;;;;;;;8.35;1.60;;;;;;;23.23;48.74;99325.48;1749968;79;21774;-75
2021/06/13 09:06:55;;;;;;;2.17;1.30;;;;;;;22.90;50.18;99311.97;1750474;80;21147;-75
2021/06/13 09:09:25;;;;;;;3.83;1.80;;;;;;;22.61;50.63;99310.04;1750557;80;21051;-76
2021/06/13 09:12:03;;;;;;;4.95;2.00;;;;;;;22.39;52.03;99306.96;1744443;80;21047;-77
2021/06/13 09:14:47;;;;;;;3.47;1.90;;;;;;;22.25;51.80;99301.73;1765318;78;20972;-76
2021/06/13 09:17:21;;;;;;;2.90;1.57;;;;;;;22.19;52.00;99295.89;1725890;79;21829;-77
2021/06/13 09:20:22;;;;;;;4.15;1.32;;;;;;;22.22;51.45;99298.69;1736180;80;21229;-78
2021/06/13 09:23:09;;;;;;;2.47;1.55;;;;;;;22.21;50.05;99291.66;1754896;79;21007;-80
2021/06/13 09:25:41;;;;;;;2.10;1.50;;;;;;;22.26;49.74;99287.23;1750960;79;21484;-79
2021/06/13 09:28:16;;;;;;;3.20;2.00;;;;;;;22.38;49.39;99281.11;1749798;80;21455;-79
2021/06/13 09:30:45;;;;;;;7.70;2.27;;;;;;;22.62;50.59;99282.08;1771944;79;21555;-82
2021/06/13 09:33:19;;;;;;;2.60;1.92;;;;;;;22.85;50.84;99278.98;1729053;80;21063;-79
2021/06/13 09:35:48;;;;;;;5.20;2.10;;;;;;;22.96;50.98;99284.63;1697565;82;21111;-77
2021/06/13 09:38:23;;;;;;;2.55;2.20;;;;;;;22.88;51.48;99268.83;1713714;82;20981;-79
2021/06/13 09:41:06;;;;;;;3.00;2.30;;;;;;;22.73;52.12;99257.89;1768735;80;21063;-80
2021/06/13 09:43:38;;;;;;;2.92;2.17;;;;;;;22.57;53.11;99267.93;1764623;79;21850;-82
2021/06/13 09:46:11;;;;;;;6.25;2.20;;;;;;;22.44;54.21;99279.69;1754908;80;21122;-84
2021/06/13 09:48:39;;;;;;;;;;;;;;;22.36;54.20;99289.41;1754118;80;20940;-79
2021/06/13 09:51:10;;;;;;;3.95;2.20;;;;;;;22.33;54.08;99280.97;1750342;79;20443;-79
2021/06/13 09:53:51;;;;;;;5.33;1.85;;;;;;;22.37;53.80;99274.08;1725015;81;21013;-79
2021/06/13 09:56:25;;;;;;;2.30;1.82;;;;;;;22.54;54.19;99270.56;1724614;81;22001;-79
2021/06/13 09:58:58;;;;;;;2.27;1.80;;;;;;;22.83;52.69;99272.98;1728505;81;21075;-77
2021/06/13 10:01:44;;;;;;;3.17;1.95;;;;;;;23.06;51.78;99280.86;1685053;82;21511;-77
2021/06/13 10:04:26;;;;;;;3.55;1.80;;;;;;;23.13;50.95;99271.64;1700631;82;21060;-76
2021/06/13 10:07:02;;;;;;;2.27;1.90;;;;;;;23.11;50.29;99270.23;1730210;80;21050;-76
2021/06/13 10:09:37;;;;;;;2.77;1.85;;;;;;;22.94;51.02;99267.37;1732539;80;21829;-74
2021/06/13 10:12:07;;;;;;;2.75;1.65;;;;;;;22.80;51.91;99261.85;1732017;80;21444;-81
2021/06/13 10:14:34;;;;;;;2.47;1.72;;;;;;;22.73;52.31;99257.89;1758278;79;20992;-80
2021/06/13 10:17:00;;;;;;;2.98;2.15;;;;;;;22.71;53.11;99243.03;1762958;80;20946;-79
2021/06/13 10:19:30;;;;;;;2.58;1.90;;;;;;;22.71;53.67;99241.16;1750658;79;20964;-76
2021/06/13 10:22:02;;;;;;;3.80;1.77;;;;;;;22.79;54.75;99244.88;1751505;80;21817;-77
2021/06/13 10:24:34;;;;;;;6.47;1.85;;;;;;;22.86;54.14;99255.56;1707909;83;21083;-74
2021/06/13 10:27:09;;;;;;;3.67;1.90;;;;;;;22.89;54.22;99247.58;1737840;80;21000;-77
2021/06/13 10:29:42;;;;;;;4.65;1.80;;;;;;;23.00;54.75;99245.44;1760101;80;21468;-75
2021/06/13 10:32:09;;;;;;;1.92;1.60;;;;;;;23.16;54.89;99235.33;1751274;79;21030;-77
2021/06/13 10:34:37;;;;;;;1.70;1.60;;;;;;;23.35;53.88;99227.98;1717440;80;21797;-75
2021/06/13 10:37:08;;;;;;;2.83;1.70;;;;;;;23.58;52.68;99229.38;1739463;80;20912;-74
2021/06/13 10:39:35;;;;;;;2.35;1.90;;;;;;;23.85;51.02;99223.01;1737306;80;21053;-75
2021/06/13 10:42:02;;;;;;;2.80;1.67;;;;;;;24.13;50.99;99224.14;1749957;79;21489;-78
2021/06/13 10:44:30;;;;;;;7.28;1.80;;;;;;;24.49;50.77;99229.21;1759603;79;21017;-77
2021/06/13 10:47:00;;;;;;;3.17;1.42;;;;;;;24.89;48.80;99233.73;1728370;79;21808;-76
2021/06/13 10:49:45;;;;;;;2.27;1.75;;;;;;;25.06;47.06;99238.67;1747199;79;20936;-75
2021/06/13 10:52:26;;;;;;;4.83;3.95;;;;;;;25.08;46.76;99249.23;1730505;80;21502;-75
2021/06/13 10:54:56;;;;;;;6.53;3.60;;;;;;;24.94;46.17;99247.88;1730996;80;21059;-75
2021/06/13 10:57:33;;;;;;;4.47;1.50;;;;;;;24.75;46.54;99258.88;1734553;79;20955;-74
2021/06/13 11:00:23;;;;;;;13.50;10.95;;;;;;;24.59;46.59;99248.02;1732212;80;21859;-76
2021/06/13 11:02:57;;;;;;;3.42;3.12;;;;;;;24.41;47.40;99247.66;1760318;80;21075;-76
2021/06/13 11:05:43;;;;;;;3.00;1.70;;;;;;;24.43;47.90;99242.87;1764616;80;21423;-79
2021/06/13 11:08:11;;;;;;;2.17;1.82;;;;;;;24.48;47.32;99244.30;1750383;80;21435;-79
2021/06/13 11:10:39;;;;;;;2.77;1.42;;;;;;;24.49;46.72;99248.64;1752631;79;21003;-81
2021/06/13 11:13:13;;;;;;;2.22;1.40;;;;;;;24.52;45.67;99258.45;1772741;80;21860;-79
2021/06/13 11:15:47;;;;;;;2.75;1.50;;;;;;;24.58;46.61;99246.38;1749911;80;20984;-79
2021/06/13 11:18:25;;;;;;;2.20;1.77;;;;;;;24.83;46.26;99258.50;1754228;80;21526;-79
2021/06/13 11:21:09;;;;;;;4.30;1.65;;;;;;;25.00;45.47;99267.18;1767254;80;21070;-79
2021/06/13 11:23:40;;;;;;;4.30;1.80;;;;;;;25.12;46.24;99270.66;1757117;80;21031;-80
2021/06/13 11:26:10;;;;;;;4.08;2.05;;;;;;;25.28;46.70;99275.78;1741099;80;22502;-76
2021/06/13 11:28:42;;;;;;;6.72;2.17;;;;;;;25.32;47.16;99276.42;1684470;83;21104;-77
2021/06/13 11:31:17;;;;;;;4.70;2.60;;;;;;;25.07;48.08;99276.78;1706155;83;21099;-77
2021/06/13 11:33:50;;;;;;;4.35;2.25;;;;;;;24.75;48.51;99276.97;1731648;81;21079;-76
2021/06/13 11:36:22;;;;;;;3.30;2.53;;;;;;;24.47;49.17;99273.17;1770444;79;21002;-75
2021/06/13 11:39:05;;;;;;;2.60;2.10;;;;;;;24.21;49.96;99270.44;1744380;80;21844;-79
2021/06/13 11:41:44;;;;;;;3.27;2.60;;;;;;;24.21;49.96;99270.44;1762298;78;21082;-79
2021/06/13 11:44:23;;;;;;;2.40;2.20;;;;;;;23.93;50.32;99263.11;1758121;79;21561;-77
2021/06/13 11:46:53;;;;;;;4.45;2.20;;;;;;;23.62;51.03;99258.05;1733053;80;21141;-81